createdAt,value
2022-11-09T00:01:04.521Z,7.90
2022-11-09T00:03:31.563Z,7.80
2022-11-09T00:05:59.782Z,7.80
2022-11-09T00:08:26.978Z,7.80
2022-11-09T00:10:54.002Z,7.80
2022-11-09T00:13:21.448Z,7.80
2022-11-09T00:15:48.716Z,7.80
2022-11-09T00:18:15.658Z,7.80
2022-11-09T00:20:47.634Z,7.80
2022-11-09T00:23:18.638Z,7.70
2022-11-09T00:25:45.880Z,7.70
2022-11-09T00:28:12.810Z,7.70
2022-11-09T00:30:40.435Z,7.60
2022-11-09T00:33:08.845Z,7.60
2022-11-09T00:35:38.667Z,7.50
2022-11-09T00:38:05.608Z,7.50
2022-11-09T00:40:32.643Z,7.50
2022-11-09T00:42:59.543Z,7.50
2022-11-09T00:45:26.459Z,7.50
2022-11-09T00:47:53.339Z,7.60
2022-11-09T00:50:20.202Z,7.50
2022-11-09T00:52:48.550Z,7.50
2022-11-09T00:55:15.529Z,7.50
2022-11-09T00:57:42.475Z,7.50
2022-11-09T01:00:09.865Z,7.40
2022-11-09T01:02:36.776Z,7.50
2022-11-09T01:05:03.943Z,7.40
2022-11-09T01:07:30.865Z,7.50
2022-11-09T01:09:57.745Z,7.40
2022-11-09T01:12:27.666Z,7.40
2022-11-09T01:14:54.659Z,7.30
2022-11-09T01:17:21.639Z,7.20
2022-11-09T01:19:49.152Z,7.10
2022-11-09T01:22:16.579Z,7.10
2022-11-09T01:24:43.456Z,7.00
2022-11-09T01:27:10.441Z,6.90
2022-11-09T01:29:37.459Z,6.80
2022-11-09T01:32:04.559Z,6.80
2022-11-09T01:34:31.506Z,6.70
2022-11-09T01:36:59.313Z,6.70
2022-11-09T01:39:26.327Z,6.60
2022-11-09T01:41:53.494Z,6.50
2022-11-09T01:44:21.522Z,6.40
2022-11-09T01:47:02.295Z,6.40
2022-11-09T01:49:51.386Z,6.40
2022-11-09T01:52:27.596Z,6.40
2022-11-09T01:55:05.486Z,6.50
2022-11-09T01:57:36.646Z,6.50
2022-11-09T02:00:13.437Z,6.50
2022-11-09T02:02:50.533Z,6.50
2022-11-09T02:05:22.265Z,6.50
2022-11-09T02:07:49.974Z,6.40
2022-11-09T02:11:00.375Z,6.40
2022-11-09T02:13:29.251Z,6.50
2022-11-09T02:15:56.527Z,6.30
2022-11-09T02:18:23.551Z,6.20
2022-11-09T02:20:55.187Z,6.20
2022-11-09T02:23:22.732Z,6.10
2022-11-09T02:26:13.929Z,6.10
2022-11-09T02:28:42.471Z,6.10
2022-11-09T02:31:14.201Z,6.10
2022-11-09T02:33:55.737Z,6.10
2022-11-09T02:36:24.085Z,6.20
2022-11-09T02:38:54.521Z,6.20
2022-11-09T02:41:22.789Z,6.10
2022-11-09T02:43:53.721Z,6.00
2022-11-09T02:46:26.024Z,5.90
2022-11-09T02:48:52.928Z,5.70
2022-11-09T02:51:19.817Z,5.70
2022-11-09T02:53:46.731Z,5.70
2022-11-09T02:56:13.642Z,5.80
2022-11-09T02:58:40.547Z,5.90
2022-11-09T03:01:07.532Z,5.90
2022-11-09T03:03:34.750Z,6.00
2022-11-09T03:06:01.722Z,5.90
2022-11-09T03:08:28.989Z,5.90
2022-11-09T03:10:55.862Z,5.70
2022-11-09T03:13:22.792Z,5.50
2022-11-09T03:15:49.737Z,5.40
2022-11-09T03:18:16.643Z,5.40
2022-11-09T03:20:43.602Z,5.30
2022-11-09T03:23:11.197Z,5.30
2022-11-09T03:25:38.124Z,5.30
2022-11-09T03:28:07.914Z,5.40
2022-11-09T03:30:35.295Z,5.20
2022-11-09T03:33:09.986Z,5.40
2022-11-09T03:35:37.353Z,5.50
2022-11-09T03:38:04.665Z,5.60
2022-11-09T03:40:32.235Z,5.60
2022-11-09T03:42:59.198Z,5.50
2022-11-09T03:45:27.998Z,5.40
2022-11-09T03:48:00.004Z,5.40
2022-11-09T03:50:28.886Z,5.40
2022-11-09T03:52:56.605Z,5.40
2022-11-09T03:55:24.017Z,5.40
2022-11-09T03:57:51.293Z,5.50
2022-11-09T04:00:20.949Z,5.50
2022-11-09T04:02:48.009Z,5.50
2022-11-09T04:05:15.524Z,5.50
2022-11-09T04:07:48.740Z,5.50
2022-11-09T04:10:15.872Z,5.50
2022-11-09T04:12:42.999Z,5.40
2022-11-09T04:15:10.420Z,5.40
2022-11-09T04:17:37.349Z,5.40
2022-11-09T04:20:05.418Z,5.50
2022-11-09T04:22:32.426Z,5.50
2022-11-09T04:24:59.473Z,5.50
2022-11-09T04:27:26.646Z,5.50
2022-11-09T04:29:53.510Z,5.60
2022-11-09T04:32:20.486Z,5.60
2022-11-09T04:34:47.499Z,5.60
2022-11-09T04:37:14.463Z,5.60
2022-11-09T04:39:41.455Z,5.70
2022-11-09T04:42:08.384Z,5.80
2022-11-09T04:44:35.253Z,5.80
2022-11-09T04:47:02.170Z,5.80
2022-11-09T04:49:29.079Z,5.70
2022-11-09T04:51:56.039Z,5.80
2022-11-09T04:54:22.984Z,5.80
2022-11-09T04:56:49.851Z,5.90
2022-11-09T04:59:16.746Z,5.90
2022-11-09T05:01:43.683Z,5.90
2022-11-09T05:04:10.680Z,5.90
2022-11-09T05:06:37.749Z,5.80
2022-11-09T05:09:07.500Z,5.80
2022-11-09T05:11:36.049Z,5.80
2022-11-09T05:14:03.472Z,5.70
2022-11-09T05:16:31.001Z,5.70
2022-11-09T05:18:58.122Z,5.70
2022-11-09T05:21:25.145Z,5.60
2022-11-09T05:24:01.555Z,5.60
2022-11-09T05:26:34.886Z,5.50
2022-11-09T05:29:05.067Z,5.40
2022-11-09T05:31:32.449Z,5.40
2022-11-09T05:33:59.722Z,5.30
2022-11-09T05:36:28.087Z,5.40
2022-11-09T05:38:55.384Z,5.50
2022-11-09T05:41:22.835Z,5.50
2022-11-09T05:43:50.530Z,5.60
2022-11-09T05:46:18.230Z,5.60
2022-11-09T05:48:45.714Z,5.60
2022-11-09T05:51:14.342Z,5.70
2022-11-09T05:53:46.067Z,5.60
2022-11-09T05:56:14.775Z,5.60
2022-11-09T05:58:42.210Z,5.70
2022-11-09T06:01:14.903Z,5.70
2022-11-09T06:03:44.197Z,5.80
2022-11-09T06:06:14.007Z,6.10
2022-11-09T06:08:41.400Z,6.30
2022-11-09T06:11:11.299Z,6.40
2022-11-09T06:13:38.816Z,6.50
2022-11-09T06:16:06.442Z,6.60
2022-11-09T06:18:35.910Z,6.60
2022-11-09T06:21:04.286Z,6.50
2022-11-09T06:23:31.747Z,6.50
2022-11-09T06:26:00.362Z,6.50
2022-11-09T06:28:27.419Z,6.70
2022-11-09T06:30:58.553Z,6.70
2022-11-09T06:33:26.076Z,6.70
2022-11-09T06:35:56.371Z,6.70
2022-11-09T06:38:26.492Z,6.80
2022-11-09T06:40:54.965Z,6.80
2022-11-09T06:43:22.677Z,7.00
2022-11-09T06:45:50.235Z,7.10
2022-11-09T06:48:17.654Z,7.10
2022-11-09T06:50:45.099Z,7.00
2022-11-09T06:53:14.146Z,7.00
2022-11-09T06:55:47.194Z,6.90
2022-11-09T06:58:17.248Z,6.90
2022-11-09T07:00:45.433Z,6.90
2022-11-09T07:03:15.191Z,7.00
2022-11-09T07:05:42.615Z,6.90
2022-11-09T07:08:10.221Z,6.90
2022-11-09T07:10:37.783Z,7.10
2022-11-09T07:13:06.070Z,7.20
2022-11-09T07:15:34.275Z,7.30
2022-11-09T07:18:02.569Z,7.30
2022-11-09T07:20:31.076Z,7.40
2022-11-09T07:22:58.387Z,7.30
2022-11-09T07:25:27.364Z,7.40
2022-11-09T07:27:54.619Z,7.40
2022-11-09T07:30:21.989Z,7.60
2022-11-09T07:35:36.029Z,7.80
2022-11-09T07:38:03.025Z,7.70
2022-11-09T07:40:30.570Z,7.70
2022-11-09T07:43:05.444Z,7.70
2022-11-09T07:45:34.303Z,7.70
2022-11-09T07:48:03.779Z,7.70
2022-11-09T07:50:31.650Z,7.80
2022-11-09T07:53:00.506Z,7.80
2022-11-09T07:55:29.001Z,7.80
2022-11-09T07:58:00.689Z,7.70
2022-11-09T08:00:29.821Z,7.70
2022-11-09T08:02:57.295Z,7.70
2022-11-09T08:05:24.842Z,7.50
2022-11-09T08:07:56.505Z,7.30
2022-11-09T08:10:24.366Z,7.20
2022-11-09T08:12:59.629Z,7.20
2022-11-09T08:15:27.572Z,7.30
2022-11-09T08:17:58.437Z,7.20
2022-11-09T08:20:25.369Z,7.20
2022-11-09T08:22:52.307Z,7.20
2022-11-09T08:25:19.378Z,7.30
2022-11-09T08:27:46.680Z,7.40
2022-11-09T08:30:20.933Z,7.50
2022-11-09T08:32:49.415Z,7.70
2022-11-09T08:35:20.345Z,7.90
2022-11-09T08:37:49.359Z,8.10
2022-11-09T08:40:19.683Z,8.10
2022-11-09T08:42:49.140Z,8.10
2022-11-09T08:45:17.291Z,8.20
2022-11-09T08:47:44.850Z,8.30
2022-11-09T08:50:13.663Z,8.40
2022-11-09T08:52:44.020Z,8.50
2022-11-09T08:55:11.012Z,8.70
2022-11-09T08:57:38.064Z,8.90
2022-11-09T09:00:05.847Z,9.20
2022-11-09T09:02:32.895Z,9.70
2022-11-09T09:05:00.304Z,10.00
2022-11-09T09:07:36.579Z,10.40
2022-11-09T09:10:04.826Z,10.80
2022-11-09T09:12:32.089Z,11.20
2022-11-09T09:14:59.495Z,11.50
2022-11-09T09:17:26.971Z,11.80
2022-11-09T09:19:54.258Z,12.10
2022-11-09T09:22:21.455Z,12.30
2022-11-09T09:24:48.492Z,12.60
2022-11-09T09:27:15.921Z,12.80
2022-11-09T09:29:43.079Z,13.00
2022-11-09T09:32:10.055Z,13.10
2022-11-09T09:34:37.013Z,13.20
2022-11-09T09:37:04.095Z,13.30
2022-11-09T09:39:31.274Z,13.40
2022-11-09T09:42:05.905Z,13.50
2022-11-09T09:44:46.758Z,13.80
2022-11-09T09:47:14.861Z,13.90
2022-11-09T09:49:46.496Z,13.80
2022-11-09T09:52:31.618Z,14.10
2022-11-09T09:55:07.091Z,14.10
2022-11-09T09:57:41.529Z,14.20
2022-11-09T10:00:15.849Z,14.20
2022-11-09T10:02:43.653Z,14.30
2022-11-09T10:05:15.591Z,14.40
2022-11-09T10:08:07.208Z,14.60
2022-11-09T10:11:04.950Z,14.70
2022-11-09T10:13:37.602Z,14.70
2022-11-09T10:16:16.366Z,14.70
2022-11-09T10:18:46.292Z,14.90
2022-11-09T10:21:44.303Z,14.90
2022-11-09T10:24:27.032Z,15.00
2022-11-09T10:26:58.886Z,15.20
2022-11-09T10:29:35.483Z,15.20
2022-11-09T10:32:10.459Z,15.20
2022-11-09T10:34:48.243Z,15.20
2022-11-09T10:37:35.406Z,15.30
2022-11-09T10:40:12.145Z,15.20
2022-11-09T10:42:39.096Z,15.10
2022-11-09T10:45:19.431Z,15.20
2022-11-09T10:47:51.970Z,15.30
2022-11-09T10:50:25.076Z,14.70
2022-11-09T10:52:52.453Z,14.10
2022-11-09T10:55:27.089Z,13.70
2022-11-09T10:58:03.822Z,13.30
2022-11-09T11:00:30.820Z,13.40
2022-11-09T11:02:57.864Z,13.40
2022-11-09T11:05:27.792Z,13.50
2022-11-09T11:07:55.203Z,13.90
2022-11-09T11:10:23.117Z,14.30
2022-11-09T11:13:01.132Z,14.70
2022-11-09T11:15:40.461Z,15.00
2022-11-09T11:18:25.335Z,15.30
2022-11-09T11:21:19.024Z,15.10
2022-11-09T11:24:19.682Z,15.20
2022-11-09T11:27:05.399Z,15.10
2022-11-09T11:30:08.885Z,15.30
2022-11-09T11:32:35.885Z,15.50
2022-11-09T11:35:23.331Z,15.90
2022-11-09T11:38:21.085Z,16.10
2022-11-09T11:41:28.659Z,16.40
2022-11-09T11:44:18.848Z,16.70
2022-11-09T11:47:02.831Z,17.00
2022-11-09T11:50:04.982Z,16.70
2022-11-09T11:52:50.709Z,16.70
2022-11-09T11:55:20.490Z,17.00
2022-11-09T11:58:26.364Z,17.30
2022-11-09T12:01:04.534Z,17.50
2022-11-09T12:03:40.949Z,17.60
2022-11-09T12:06:18.197Z,17.70
2022-11-09T12:09:00.055Z,17.40
2022-11-09T12:11:53.779Z,17.60
2022-11-09T12:14:38.383Z,17.60
2022-11-09T12:17:23.356Z,17.50
2022-11-09T12:19:53.026Z,17.60
2022-11-09T12:22:28.455Z,17.70
2022-11-09T12:25:12.510Z,17.80
2022-11-09T12:28:13.609Z,17.50
2022-11-09T12:30:57.903Z,16.70
2022-11-09T12:33:45.386Z,16.20
2022-11-09T12:36:24.039Z,15.70
2022-11-09T12:39:15.689Z,15.10
2022-11-09T12:41:45.386Z,14.70
2022-11-09T12:44:33.831Z,14.30
2022-11-09T12:47:08.032Z,14.00
2022-11-09T12:49:41.037Z,13.80
2022-11-09T12:52:12.192Z,13.60
2022-11-09T12:54:45.796Z,13.40
2022-11-09T12:57:21.254Z,13.30
2022-11-09T12:59:50.281Z,13.30
2022-11-09T13:02:39.208Z,13.10
2022-11-09T13:05:26.394Z,13.10
2022-11-09T13:07:54.667Z,13.00
2022-11-09T13:10:34.565Z,12.90
2022-11-09T13:13:12.135Z,12.90
2022-11-09T13:15:40.326Z,12.80
2022-11-09T13:18:22.436Z,12.60
2022-11-09T13:20:56.433Z,12.60
2022-11-09T13:23:54.653Z,12.60
2022-11-09T13:26:39.515Z,12.50
2022-11-09T13:29:16.145Z,12.40
2022-11-09T13:32:02.432Z,12.40
2022-11-09T13:34:46.478Z,12.40
2022-11-09T13:37:41.468Z,12.30
2022-11-09T13:40:33.691Z,12.30
2022-11-09T13:43:06.507Z,12.30
2022-11-09T13:45:41.960Z,12.40
2022-11-09T13:48:26.012Z,12.30
2022-11-09T13:50:58.578Z,12.40
2022-11-09T13:53:30.762Z,12.30
2022-11-09T13:55:58.026Z,12.30
2022-11-09T13:58:35.257Z,12.20
2022-11-09T14:01:02.382Z,12.20
2022-11-09T14:03:30.460Z,12.20
2022-11-09T14:06:02.869Z,12.20
2022-11-09T14:08:38.998Z,12.10
2022-11-09T14:11:21.220Z,12.10
2022-11-09T14:14:32.520Z,12.10
2022-11-09T14:17:17.258Z,11.90
2022-11-09T14:20:17.904Z,11.90
2022-11-09T14:22:44.967Z,11.80
2022-11-09T14:25:21.318Z,11.70
2022-11-09T14:27:57.511Z,11.70
2022-11-09T14:30:29.692Z,11.70
2022-11-09T14:32:58.055Z,11.60
2022-11-09T14:35:29.733Z,11.60
2022-11-09T14:37:59.232Z,11.50
2022-11-09T14:40:28.784Z,11.50
2022-11-09T14:42:59.950Z,11.50
2022-11-09T14:45:28.162Z,11.40
2022-11-09T14:48:00.204Z,11.40
2022-11-09T14:50:35.660Z,11.40
2022-11-09T14:53:03.586Z,11.40
2022-11-09T14:55:32.110Z,11.40
2022-11-09T14:57:59.391Z,11.40
2022-11-09T15:00:35.193Z,11.40
2022-11-09T15:03:30.395Z,11.90
2022-11-09T15:06:04.615Z,12.30
2022-11-09T15:08:32.375Z,12.50
2022-11-09T15:10:59.522Z,12.80
2022-11-09T15:13:34.992Z,12.70
2022-11-09T15:16:02.925Z,12.70
2022-11-09T15:18:34.269Z,12.50
2022-11-09T15:21:24.014Z,12.30
2022-11-09T15:24:09.255Z,12.10
2022-11-09T15:26:39.684Z,12.00
2022-11-09T15:29:37.226Z,11.90
2022-11-09T15:32:17.711Z,11.90
2022-11-09T15:35:13.973Z,11.80
2022-11-09T15:37:44.403Z,11.70
2022-11-09T15:40:13.307Z,11.60
2022-11-09T15:42:45.093Z,11.50
2022-11-09T15:45:19.985Z,11.40
2022-11-09T15:47:53.036Z,11.40
2022-11-09T15:50:24.122Z,11.30
2022-11-09T15:52:51.600Z,11.20
2022-11-09T15:55:23.182Z,11.20
2022-11-09T15:57:52.552Z,11.10
2022-11-09T16:00:21.850Z,10.90
2022-11-09T16:02:49.247Z,10.90
2022-11-09T16:05:16.565Z,10.70
2022-11-09T16:07:54.082Z,10.70
2022-11-09T16:10:23.447Z,10.60
2022-11-09T16:12:53.475Z,10.60
2022-11-09T16:15:20.810Z,10.50
2022-11-09T16:17:50.334Z,10.50
2022-11-09T16:20:18.235Z,10.40
2022-11-09T16:22:45.399Z,10.40
2022-11-09T16:25:13.227Z,10.40
2022-11-09T16:27:50.250Z,10.30
2022-11-09T16:30:18.247Z,10.30
2022-11-09T16:32:45.171Z,10.20
2022-11-09T16:35:28.502Z,10.20
2022-11-09T16:37:58.156Z,10.10
2022-11-09T16:40:26.975Z,10.10
2022-11-09T16:42:54.129Z,9.90
2022-11-09T16:45:21.587Z,9.90
2022-11-09T16:47:53.924Z,9.90
2022-11-09T16:50:20.837Z,9.80
2022-11-09T16:52:47.702Z,9.80
2022-11-09T16:55:14.842Z,9.70
2022-11-09T16:57:41.849Z,9.70
2022-11-09T17:00:09.359Z,9.70
2022-11-09T17:02:36.292Z,9.80
2022-11-09T17:05:03.326Z,9.80
2022-11-09T17:07:30.356Z,9.80
2022-11-09T17:09:57.294Z,9.80
2022-11-09T17:12:24.447Z,9.80
2022-11-09T17:14:51.450Z,9.80
2022-11-09T17:17:22.591Z,9.90
2022-11-09T17:19:50.238Z,9.90
2022-11-09T17:22:17.653Z,9.90
2022-11-09T17:24:44.763Z,9.80
2022-11-09T17:27:12.561Z,9.80
2022-11-09T17:29:40.332Z,9.70
2022-11-09T17:32:09.416Z,9.70
2022-11-09T17:34:36.522Z,9.80
2022-11-09T17:37:05.452Z,9.80
2022-11-09T17:39:33.400Z,9.70
2022-11-09T17:42:00.320Z,9.80
2022-11-09T17:44:27.319Z,9.80
2022-11-09T17:46:54.186Z,9.80
2022-11-09T17:49:21.127Z,9.70
2022-11-09T17:51:48.041Z,9.60
2022-11-09T17:54:15.128Z,9.50
2022-11-09T17:56:42.188Z,9.40
2022-11-09T17:59:09.425Z,9.30
2022-11-09T18:01:41.218Z,9.40
2022-11-09T18:04:10.847Z,9.40
2022-11-09T18:06:38.570Z,9.40
2022-11-09T18:11:53.076Z,9.20
2022-11-09T18:14:20.437Z,9.10
2022-11-09T18:16:47.360Z,9.10
2022-11-09T18:19:14.278Z,9.00
2022-11-09T18:21:41.550Z,8.90
2022-11-09T18:24:08.890Z,8.80
2022-11-09T18:26:35.799Z,8.90
2022-11-09T18:29:02.902Z,8.80
2022-11-09T18:31:29.799Z,8.80
2022-11-09T18:33:56.689Z,8.70
2022-11-09T18:36:23.830Z,8.70
2022-11-09T18:38:53.929Z,8.80
2022-11-09T18:41:22.557Z,8.60
2022-11-09T18:43:50.824Z,8.50
2022-11-09T18:46:19.105Z,8.50
2022-11-09T18:48:50.009Z,8.30
2022-11-09T18:51:16.950Z,8.30
2022-11-09T18:53:45.782Z,8.30
2022-11-09T18:56:32.181Z,8.30
2022-11-09T18:59:00.012Z,8.40
2022-11-09T19:01:27.602Z,8.50
2022-11-09T19:03:59.332Z,8.60
2022-11-09T19:06:26.938Z,8.60
2022-11-09T19:09:12.457Z,8.60
2022-11-09T19:11:39.357Z,8.60
2022-11-09T19:14:06.723Z,8.70
2022-11-09T19:16:33.678Z,8.80
2022-11-09T19:19:00.573Z,8.80
2022-11-09T19:21:50.289Z,8.90
2022-11-09T19:24:19.443Z,8.90
2022-11-09T19:26:47.184Z,9.00
2022-11-09T19:29:15.654Z,9.00
2022-11-09T19:31:43.466Z,9.00
2022-11-09T19:34:12.288Z,9.00
2022-11-09T19:36:39.961Z,9.00
2022-11-09T19:39:07.053Z,9.00
2022-11-09T19:41:33.916Z,8.90
2022-11-09T19:44:00.889Z,8.90
2022-11-09T19:46:31.111Z,8.90
2022-11-09T19:48:58.653Z,8.90
2022-11-09T19:51:29.484Z,9.00
2022-11-09T19:53:58.335Z,9.00
2022-11-09T19:56:27.129Z,9.10
2022-11-09T19:58:56.604Z,9.10
2022-11-09T20:01:23.947Z,9.10
2022-11-09T20:03:52.471Z,9.10
2022-11-09T20:06:20.759Z,9.10
2022-11-09T20:08:47.914Z,9.10
2022-11-09T20:11:39.016Z,9.10
2022-11-09T20:14:07.152Z,9.20
2022-11-09T20:16:35.177Z,9.10
2022-11-09T20:19:03.761Z,9.10
2022-11-09T20:21:31.082Z,9.00
2022-11-09T20:23:58.254Z,9.00
2022-11-09T20:26:25.136Z,9.10
2022-11-09T20:28:53.679Z,9.10
2022-11-09T20:31:21.546Z,9.10
2022-11-09T20:33:49.242Z,9.10
2022-11-09T20:36:18.656Z,9.10
2022-11-09T20:38:46.127Z,9.10
2022-11-09T20:41:13.398Z,9.10
2022-11-09T20:43:40.526Z,9.10
2022-11-09T20:46:09.981Z,9.20
2022-11-09T20:48:54.947Z,9.20
2022-11-09T20:51:23.901Z,9.20
2022-11-09T20:53:51.773Z,9.20
2022-11-09T20:56:19.710Z,9.20
2022-11-09T20:58:47.303Z,9.20
2022-11-09T21:01:17.093Z,9.20
2022-11-09T21:03:44.914Z,9.20
2022-11-09T21:06:13.576Z,9.20
2022-11-09T21:08:43.633Z,9.20
2022-11-09T21:11:13.271Z,9.30
2022-11-09T21:13:45.810Z,9.30
2022-11-09T21:16:15.356Z,9.20
2022-11-09T21:18:42.679Z,9.20
2022-11-09T21:21:15.796Z,9.20
2022-11-09T21:24:01.801Z,9.20
2022-11-09T21:26:47.721Z,9.20
2022-11-09T21:29:35.794Z,9.30
2022-11-09T21:32:03.751Z,9.20
2022-11-09T21:34:36.244Z,9.20
2022-11-09T21:37:03.938Z,9.20
2022-11-09T21:39:33.687Z,9.30
2022-11-09T21:42:01.887Z,9.30
2022-11-09T21:44:30.549Z,9.30
2022-11-09T21:46:58.023Z,9.30
2022-11-09T21:49:25.174Z,9.30
2022-11-09T21:51:52.340Z,9.30
2022-11-09T21:54:19.690Z,9.30
2022-11-09T21:56:48.502Z,9.30
2022-11-09T21:59:15.454Z,9.40
2022-11-09T22:01:42.880Z,9.40
2022-11-09T22:04:09.932Z,9.40
2022-11-09T22:06:39.046Z,9.50
2022-11-09T22:09:07.465Z,9.50
2022-11-09T22:11:53.298Z,9.50
2022-11-09T22:14:39.564Z,9.50
2022-11-09T22:17:10.669Z,9.50
2022-11-09T22:19:57.523Z,9.40
2022-11-09T22:22:27.173Z,9.50
2022-11-09T22:24:54.054Z,9.60
2022-11-09T22:27:20.978Z,9.50
2022-11-09T22:29:47.918Z,9.60
2022-11-09T22:32:14.803Z,9.60
2022-11-09T22:34:41.714Z,9.60
2022-11-09T22:37:08.890Z,9.70
2022-11-09T22:39:35.863Z,9.70
2022-11-09T22:42:02.760Z,9.70
2022-11-09T22:44:29.694Z,9.80
2022-11-09T22:46:56.559Z,9.80
2022-11-09T22:49:23.467Z,9.80
2022-11-09T22:51:52.221Z,9.80
2022-11-09T22:54:21.237Z,9.80
2022-11-09T22:56:48.350Z,9.90
2022-11-09T22:59:15.423Z,9.90
2022-11-09T23:01:42.371Z,9.90
2022-11-09T23:04:10.255Z,9.90
2022-11-09T23:06:37.255Z,10.00
2022-11-09T23:09:04.655Z,10.00
2022-11-09T23:11:31.615Z,10.00
2022-11-09T23:13:59.009Z,10.00
2022-11-09T23:16:26.641Z,10.00
2022-11-09T23:18:53.697Z,10.00
2022-11-09T23:21:29.462Z,10.00
2022-11-09T23:23:59.057Z,10.00
2022-11-09T23:26:27.409Z,10.00
2022-11-09T23:28:55.294Z,10.10
2022-11-09T23:31:24.505Z,10.10
2022-11-09T23:33:56.764Z,10.10
2022-11-09T23:36:25.749Z,10.10
2022-11-09T23:38:53.032Z,10.10
2022-11-09T23:41:20.129Z,10.10
2022-11-09T23:43:49.685Z,10.00
2022-11-09T23:46:17.473Z,10.00
2022-11-09T23:48:44.389Z,9.90
2022-11-09T23:51:11.433Z,9.90
2022-11-09T23:53:38.796Z,9.90
2022-11-09T23:56:11.417Z,9.80
2022-11-09T23:58:38.846Z,9.80
